createdAt,value
2023-04-19T00:02:59.708Z,98063.53
2023-04-19T00:07:03.583Z,98058.16
2023-04-19T00:11:07.677Z,98051.19
2023-04-19T00:15:11.752Z,98051.88
2023-04-19T00:19:17.232Z,98050.19
2023-04-19T00:23:20.396Z,98041.59
2023-04-19T00:27:24.396Z,98032.94
2023-04-19T00:31:27.798Z,98038.16
2023-04-19T00:35:34.906Z,98028.56
2023-04-19T00:39:38.323Z,98021.69
2023-04-19T00:43:42.189Z,98025.94
2023-04-19T00:47:45.423Z,98014.53
2023-04-19T00:51:52.087Z,98009.31
2023-04-19T00:55:57.241Z,98006.03
2023-04-19T01:00:00.882Z,98007.03
2023-04-19T01:04:06.679Z,98004.72
2023-04-19T01:08:12.178Z,98001.44
2023-04-19T01:12:15.541Z,97994.91
2023-04-19T01:16:20.551Z,97996.19
2023-04-19T01:20:24.075Z,97991.25
2023-04-19T01:24:29.385Z,97986.22
2023-04-19T01:28:32.563Z,97974.31
2023-04-19T01:32:36.289Z,97971.19
2023-04-19T01:36:39.618Z,97971.81
2023-04-19T01:40:45.196Z,97961.47
2023-04-19T01:44:48.527Z,97957.47
2023-04-19T01:48:53.634Z,97955.34
2023-04-19T01:52:57.209Z,97960.94
2023-04-19T01:57:03.080Z,97953.88
2023-04-19T02:01:06.264Z,97955.00
2023-04-19T02:05:10.936Z,97948.81
2023-04-19T02:09:14.210Z,97948.38
2023-04-19T02:13:21.373Z,97955.59
2023-04-19T02:17:25.892Z,97948.16
2023-04-19T02:21:29.490Z,97942.34
2023-04-19T02:25:33.464Z,97937.50
2023-04-19T02:29:39.024Z,97941.19
2023-04-19T02:33:42.540Z,97934.69
2023-04-19T02:37:46.933Z,97934.25
2023-04-19T02:41:50.482Z,97929.56
2023-04-19T02:45:55.701Z,97907.03
2023-04-19T02:49:58.968Z,97917.84
2023-04-19T02:54:02.468Z,97924.38
2023-04-19T02:58:06.403Z,97917.25
2023-04-19T03:02:11.494Z,97924.09
2023-04-19T03:06:16.544Z,97913.81
2023-04-19T03:10:19.943Z,97916.13
2023-04-19T03:14:23.878Z,97914.16
2023-04-19T03:18:29.990Z,97906.19
2023-04-19T03:22:35.206Z,97902.94
2023-04-19T03:26:38.490Z,97899.06
2023-04-19T03:30:42.220Z,97889.59
2023-04-19T03:34:47.341Z,97891.22
2023-04-19T03:38:50.643Z,97882.09
2023-04-19T03:42:54.059Z,97877.19
2023-04-19T03:46:57.934Z,97870.97
2023-04-19T03:51:02.759Z,97880.38
2023-04-19T03:55:07.124Z,97864.97
2023-04-19T03:59:11.263Z,97868.19
2023-04-19T04:03:15.147Z,97869.44
2023-04-19T04:07:20.231Z,97874.00
2023-04-19T04:11:23.947Z,97873.63
2023-04-19T04:15:27.312Z,97876.53
2023-04-19T04:19:31.055Z,97862.47
2023-04-19T04:23:36.006Z,97881.72
2023-04-19T04:27:39.957Z,97874.59
2023-04-19T04:31:43.730Z,97872.66
2023-04-19T04:35:48.622Z,97877.88
2023-04-19T04:39:53.681Z,97884.41
2023-04-19T04:44:11.389Z,97878.53
2023-04-19T04:48:16.602Z,97882.59
2023-04-19T04:52:20.205Z,97869.59
2023-04-19T04:56:26.429Z,97876.50
2023-04-19T05:00:30.147Z,97870.88
2023-04-19T05:04:33.145Z,97873.84
2023-04-19T05:08:37.011Z,97868.81
2023-04-19T05:12:42.763Z,97868.69
2023-04-19T05:16:46.970Z,97868.91
2023-04-19T05:20:50.315Z,97870.75
2023-04-19T05:24:53.474Z,97852.84
2023-04-19T05:28:58.197Z,97860.34
2023-04-19T05:33:02.075Z,97852.88
2023-04-19T05:37:05.525Z,97837.25
2023-04-19T05:41:08.816Z,97836.16
2023-04-19T05:45:16.029Z,97838.97
2023-04-19T05:49:19.382Z,97834.06
2023-04-19T05:53:22.569Z,97842.72
2023-04-19T05:57:26.373Z,97834.75
2023-04-19T06:01:31.296Z,97834.47
2023-04-19T06:05:35.213Z,97822.28
2023-04-19T06:09:38.460Z,97821.47
2023-04-19T06:13:42.284Z,97832.28
2023-04-19T06:17:47.478Z,97823.16
2023-04-19T06:21:51.863Z,97822.97
2023-04-19T06:25:54.925Z,97825.41
2023-04-19T06:29:58.459Z,97821.66
2023-04-19T06:34:03.265Z,97813.78
2023-04-19T06:38:06.843Z,97814.59
2023-04-19T06:42:10.329Z,97808.72
2023-04-19T06:46:14.402Z,97812.28
2023-04-19T06:50:19.825Z,97811.28
2023-04-19T06:54:23.258Z,97805.06
2023-04-19T06:58:27.331Z,97798.16
2023-04-19T07:02:30.906Z,97797.31
2023-04-19T07:06:35.730Z,97792.56
2023-04-19T07:10:39.151Z,97782.09
2023-04-19T07:14:42.445Z,97783.72
2023-04-19T07:18:46.238Z,97778.47
2023-04-19T07:22:51.177Z,97768.69
2023-04-19T07:26:54.674Z,97775.38
2023-04-19T07:30:57.778Z,97774.03
2023-04-19T07:35:01.406Z,97766.66
2023-04-19T07:39:06.326Z,97773.69
2023-04-19T07:43:10.442Z,97772.19
2023-04-19T07:47:13.984Z,97779.69
2023-04-19T07:51:20.100Z,97777.88
2023-04-19T07:55:25.061Z,97775.47
2023-04-19T07:59:28.679Z,97777.44
2023-04-19T08:03:32.451Z,97775.81
2023-04-19T08:07:36.329Z,97772.19
2023-04-19T08:11:40.620Z,97768.25
2023-04-19T08:19:51.198Z,97758.72
2023-04-19T08:23:55.084Z,97766.22
2023-04-19T08:27:59.502Z,97763.25
2023-04-19T08:32:03.351Z,97762.25
2023-04-19T08:36:07.340Z,97764.53
2023-04-19T08:40:12.080Z,97759.94
2023-04-19T08:44:32.552Z,97757.97
2023-04-19T08:48:39.658Z,97751.75
2023-04-19T08:52:53.992Z,97751.75
2023-04-19T08:57:01.590Z,97744.19
2023-04-19T09:01:17.095Z,97739.78
2023-04-19T09:05:30.318Z,97739.09
2023-04-19T09:09:40.696Z,97736.63
2023-04-19T09:13:46.900Z,97724.06
2023-04-19T09:18:05.147Z,97726.09
2023-04-19T09:22:15.708Z,97718.84
2023-04-19T09:26:23.507Z,97723.00
2023-04-19T09:30:32.363Z,97721.56
2023-04-19T09:34:53.816Z,97727.19
2023-04-19T09:38:57.181Z,97718.75
2023-04-19T09:43:17.486Z,97709.66
2023-04-19T09:47:25.752Z,97714.28
2023-04-19T09:51:42.155Z,97704.03
2023-04-19T09:55:57.779Z,97707.19
2023-04-19T10:00:08.516Z,97710.97
2023-04-19T10:04:25.875Z,97719.94
2023-04-19T10:08:39.842Z,97701.66
2023-04-19T10:12:59.194Z,97699.69
2023-04-19T10:17:06.749Z,97704.25
2023-04-19T10:21:13.097Z,97706.19
2023-04-19T10:25:18.566Z,97705.38
2023-04-19T10:30:00.909Z,97707.47
2023-04-19T10:34:04.320Z,97704.59
2023-04-19T10:38:10.534Z,97701.03
2023-04-19T10:42:15.009Z,97707.72
2023-04-19T10:46:38.884Z,97696.63
2023-04-19T10:51:00.122Z,97691.69
2023-04-19T10:55:05.737Z,97694.97
2023-04-19T10:59:23.611Z,97689.19
2023-04-19T11:03:54.565Z,97687.28
2023-04-19T11:07:58.958Z,97676.81
2023-04-19T11:12:04.215Z,97675.31
2023-04-19T11:16:11.771Z,97667.47
2023-04-19T11:20:15.502Z,97668.81
2023-04-19T11:24:21.246Z,97667.84
2023-04-19T11:28:24.738Z,97663.00
2023-04-19T11:32:30.374Z,97668.63
2023-04-19T11:36:34.168Z,97664.06
2023-04-19T11:40:37.980Z,97668.00
2023-04-19T11:44:41.551Z,97670.63
2023-04-19T11:48:55.251Z,97660.78
2023-04-19T11:52:59.790Z,97664.56
2023-04-19T11:57:05.097Z,97670.91
2023-04-19T12:01:10.199Z,97670.38
2023-04-19T12:05:17.314Z,97663.50
2023-04-19T12:09:24.242Z,97665.00
2023-04-19T12:13:28.381Z,97672.22
2023-04-19T12:17:31.551Z,97666.50
2023-04-19T12:21:37.006Z,97666.03
2023-04-19T12:25:40.628Z,97665.41
2023-04-19T12:29:44.752Z,97662.78
2023-04-19T12:33:47.801Z,97667.19
2023-04-19T12:37:54.390Z,97674.06
2023-04-19T12:41:58.101Z,97669.16
2023-04-19T12:46:01.910Z,97666.72
2023-04-19T12:50:06.126Z,97657.25
2023-04-19T12:54:11.270Z,97670.63
2023-04-19T12:58:14.592Z,97670.84
2023-04-19T13:02:18.186Z,97669.75
2023-04-19T13:06:21.784Z,97671.59
2023-04-19T13:10:26.809Z,97676.50
2023-04-19T13:14:31.085Z,97678.28
2023-04-19T13:18:34.374Z,97684.16
2023-04-19T13:22:37.747Z,97686.78
2023-04-19T13:26:43.002Z,97685.13
2023-04-19T13:30:46.668Z,97678.63
2023-04-19T13:34:50.306Z,97676.03
2023-04-19T13:38:53.381Z,97680.56
2023-04-19T13:42:58.654Z,97683.97
2023-04-19T13:47:03.715Z,97680.22
2023-04-19T13:51:08.481Z,97674.81
2023-04-19T13:55:11.951Z,97684.94
2023-04-19T13:59:17.114Z,97686.06
2023-04-19T14:03:20.944Z,97690.63
2023-04-19T14:07:33.099Z,97693.69
2023-04-19T14:11:38.355Z,97689.09
2023-04-19T14:15:43.485Z,97684.25
2023-04-19T14:19:46.699Z,97688.47
2023-04-19T14:23:50.074Z,97693.66
2023-04-19T14:27:53.958Z,97699.22
2023-04-19T14:32:05.066Z,97700.22
2023-04-19T14:36:14.198Z,97704.88
2023-04-19T14:40:18.803Z,97703.03
2023-04-19T14:44:22.364Z,97695.41
2023-04-19T14:48:27.394Z,97695.59
2023-04-19T14:52:31.087Z,97703.31
2023-04-19T14:56:34.214Z,97707.44
2023-04-19T15:00:37.820Z,97715.81
2023-04-19T15:04:45.154Z,97710.91
2023-04-19T15:08:49.100Z,97707.19
2023-04-19T15:12:52.685Z,97708.09
2023-04-19T15:16:56.318Z,97701.63
2023-04-19T15:21:02.040Z,97702.91
2023-04-19T15:25:06.145Z,97711.81
2023-04-19T15:29:10.877Z,97709.50
2023-04-19T15:33:14.307Z,97716.09
2023-04-19T15:37:19.981Z,97722.69
2023-04-19T15:41:23.575Z,97730.56
2023-04-19T15:45:26.736Z,97731.22
2023-04-19T15:49:32.272Z,97737.88
2023-04-19T15:53:37.261Z,97733.00
2023-04-19T15:57:40.974Z,97738.81
2023-04-19T16:01:44.058Z,97740.25
2023-04-19T16:05:50.878Z,97735.78
2023-04-19T16:09:56.234Z,97739.94
2023-04-19T16:13:59.283Z,97745.06
2023-04-19T16:18:02.800Z,97739.66
2023-04-19T16:22:07.248Z,97744.47
2023-04-19T16:26:11.996Z,97743.81
2023-04-19T16:30:16.448Z,97741.66
2023-04-19T16:34:22.148Z,97740.63
2023-04-19T16:38:25.873Z,97745.28
2023-04-19T16:42:31.153Z,97745.06
2023-04-19T16:46:34.277Z,97744.03
2023-04-19T16:50:38.372Z,97743.59
2023-04-19T16:54:43.648Z,97746.47
2023-04-19T16:58:50.721Z,97747.44
2023-04-19T17:02:57.035Z,97745.97
2023-04-19T17:07:00.649Z,97745.16
2023-04-19T17:11:03.793Z,97745.16
2023-04-19T17:15:09.925Z,97743.53
2023-04-19T17:19:13.217Z,97741.88
2023-04-19T17:23:16.395Z,97731.47
2023-04-19T17:27:19.513Z,97730.81
2023-04-19T17:31:24.165Z,97727.75
2023-04-19T17:35:27.612Z,97724.31
2023-04-19T17:39:31.224Z,97724.47
2023-04-19T17:43:34.750Z,97718.13
2023-04-19T17:47:40.139Z,97720.38
2023-04-19T17:51:43.919Z,97723.16
2023-04-19T17:55:47.210Z,97720.19
2023-04-19T17:59:50.631Z,97727.72
2023-04-19T18:03:55.408Z,97714.22
2023-04-19T18:08:01.224Z,97733.72
2023-04-19T18:12:04.651Z,97733.06
2023-04-19T18:16:07.960Z,97726.34
2023-04-19T18:20:14.461Z,97730.31
2023-04-19T18:24:17.877Z,97735.91
2023-04-19T18:28:21.645Z,97739.06
2023-04-19T18:32:29.223Z,97741.50
2023-04-19T18:36:33.587Z,97757.47
2023-04-19T18:40:38.619Z,97769.34
2023-04-19T18:48:48.746Z,97766.31
2023-04-19T18:52:53.135Z,97771.50
2023-04-19T18:57:21.778Z,97778.03
2023-04-19T19:01:21.067Z,97780.75
2023-04-19T19:05:24.444Z,97776.94
2023-04-19T19:09:29.246Z,97784.59
2023-04-19T19:13:32.513Z,97790.16
2023-04-19T19:17:36.410Z,97800.25
2023-04-19T19:21:41.694Z,97802.56
2023-04-19T19:25:51.873Z,97798.88
2023-04-19T19:29:58.808Z,97802.31
2023-04-19T19:34:22.692Z,97802.16
2023-04-19T19:38:27.458Z,97800.38
2023-04-19T19:42:34.158Z,97796.00
2023-04-19T19:46:37.811Z,97790.97
2023-04-19T19:54:52.549Z,97775.81
2023-04-19T19:58:58.420Z,97774.19
2023-04-19T20:03:02.224Z,97776.09
2023-04-19T20:11:14.015Z,97774.75
2023-04-19T20:15:19.302Z,97779.25
2023-04-19T20:19:22.913Z,97776.94
2023-04-19T20:23:28.912Z,97773.78
2023-04-19T20:27:38.260Z,97790.31
2023-04-19T20:31:44.446Z,97793.84
2023-04-19T20:35:56.972Z,97787.31
2023-04-19T20:40:00.254Z,97799.03
2023-04-19T20:44:05.516Z,97792.34
2023-04-19T20:48:10.935Z,97791.41
2023-04-19T20:52:14.479Z,97794.81
2023-04-19T20:56:18.323Z,97795.50
2023-04-19T21:00:22.312Z,97789.34
2023-04-19T21:04:27.976Z,97792.50
2023-04-19T21:08:31.235Z,97782.94
2023-04-19T21:12:35.277Z,97776.66
2023-04-19T21:16:40.795Z,97768.72
2023-04-19T21:20:45.394Z,97766.97
2023-04-19T21:24:48.501Z,97755.94
2023-04-19T21:28:53.002Z,97757.00
2023-04-19T21:32:56.705Z,97739.69
2023-04-19T21:37:01.551Z,97751.81
2023-04-19T21:41:05.299Z,97750.19
2023-04-19T21:45:09.962Z,97745.81
2023-04-19T21:49:15.441Z,97768.19
2023-04-19T21:53:20.195Z,97774.06
2023-04-19T21:57:25.361Z,97781.03
2023-04-19T22:01:29.054Z,97778.44
2023-04-19T22:05:32.995Z,97778.28
2023-04-19T22:09:37.551Z,97764.38
2023-04-19T22:13:41.586Z,97767.78
2023-04-19T22:17:46.262Z,97761.63
2023-04-19T22:21:50.073Z,97771.19
2023-04-19T22:25:54.749Z,97770.25
2023-04-19T22:29:58.389Z,97759.19
2023-04-19T22:34:01.704Z,97756.59
2023-04-19T22:38:05.177Z,97755.75
2023-04-19T22:42:10.318Z,97764.38
2023-04-19T22:46:14.092Z,97758.53
2023-04-19T22:50:18.283Z,97744.72
2023-04-19T22:54:21.871Z,97738.72
2023-04-19T22:58:26.414Z,97730.28
2023-04-19T23:02:29.771Z,97733.81
2023-04-19T23:06:34.626Z,97731.22
2023-04-19T23:10:39.149Z,97725.38
2023-04-19T23:14:44.011Z,97723.69
2023-04-19T23:18:47.310Z,97717.88
2023-04-19T23:22:51.082Z,97715.28
2023-04-19T23:26:54.493Z,97709.38
2023-04-19T23:30:59.722Z,97693.97
2023-04-19T23:35:03.210Z,97694.13
2023-04-19T23:39:08.704Z,97689.91
2023-04-19T23:43:11.844Z,97693.19
2023-04-19T23:47:17.383Z,97691.53
2023-04-19T23:51:20.584Z,97695.09
2023-04-19T23:55:24.693Z,97694.25
2023-04-19T23:59:28.192Z,97674.34
